Jon Santiago

Scout - Las Palmas
14 Okt 2027
Donnerstag
Verarbeitung

Persönlichkeit

Anpassungsfähigkeit (1) Ehrgeiz (16) Kontroverse (1) Loyalität (14) Druck (3) Professionalität (11) Fairness (10) Temperament (9)

Profil

Trainerstil Demokratisch
Lizenz Kontinentale Pro
Entschlossenheit 13
Menschenführung 9
Motivation 6
Disziplin 4
Arbeitszufriedenheit
42%
Ermüdung
0%
Rolle Scout
Gehalt 21.2K p/W
Vertrag 14.03.2029

Leistung

Verhalten Gut
Trainingseffektivität
15%
Spielerentwicklung
20%
Verletzungsprävention
60%
Taktische Umsetzung
50%

Letzte Ereignisse

Nahm an einer Scouting-Besprechung teil jetzt
Empfahl ein Transferziel jetzt
Empfahl ein Transferziel jetzt
Empfahl ein Transferziel jetzt
Empfahl ein Transferziel 7T her
Empfahl ein Transferziel 7T her
Empfahl ein Transferziel 7T her
Spiel beobachtet 7T her

Aktuell beobachtet

98
Spieler Verein Status Fähigkeit Vertrauen Beobachtet Zuletzt beobachtet Letzte Stimme
Mohamed Bolivar Barranquilla Aktiv 94 / 100 40% 1 23.08.2027 -
Ignacio Fernández Boston River Aktiv 89 / 95 40% 1 23.08.2027 -
Gift Udoh Ikorodu City Aktiv 88 / 98 40% 1 17.08.2027 -
Eddy Kouadio Crotone Aktiv 108 / 116 40% 1 17.08.2027 -
Agustín Obregón River Plate Aktiv 108 / 126 40% 1 17.08.2027 -
Davide Bartesaghi AC Milan Aktiv 135 / 137 40% 6 09.08.2027 -
Jan Bürger Gillingham Aktiv 114 / 127 40% 4 09.08.2027 -
Kazunari Kita Real Sociedad Aktiv 106 / 112 40% 2 19.07.2027 -
Izan Merino Málaga Aktiv 129 / 129 40% 4 19.07.2027 -
David Valencia Alianza Petrolera Verhandlung 122 / 135 40% 1 19.07.2027 -
Josh King Chelsea Aktiv 141 / 150 40% 3 28.06.2027 -
Ricky Atletico Venezuela Aktiv 92 / 96 40% 1 28.06.2027 -
Gadiel Paoli River Plate Aktiv 88 / 99 40% 1 28.06.2027 -
Pedro de la Vega FC Dallas Verhandlung 133 / 134 66% 1 01.06.2027 Befürworten
Konstantin Tyukavin Inter Aktiv 132 / 133 66% 1 01.06.2027 Befürworten
Sampson Dweh Anderlecht Verhandlung 133 / 134 66% 1 01.06.2027 Befürworten
Martin Cedidla Spartak Moscow Aktiv 131 / 132 66% 1 01.06.2027 Befürworten
Léo Scienza Southampton Aktiv 136 / 136 66% 1 01.06.2027 Befürworten
Ramiro Buratti River Plate Aktiv 96 / 106 40% 1 01.06.2027 -
Víctor Mollejo Burgos Aktiv 122 / 120 40% 1 31.05.2027 -
Elijah Adebayo Luton Town Aktiv 128 / 127 40% 1 31.05.2027 -
Morgan Whittaker Middlesbrough Aktiv 128 / 135 40% 1 31.05.2027 -
Zane Albarus Cambridge United Aktiv 91 / 100 40% 4 30.05.2027 -
Finley McAllister Grimsby Town Aktiv 96 / 93 40% 1 30.05.2027 -
Yussif Saidu Zaragoza Aktiv 121 / 131 40% 4 29.05.2027 -
José Pachuca Puebla Aktiv 117 / 117 40% 6 28.05.2027 -
Keagan Tau Ajax Cape Town Aktiv 102 / 106 40% 2 28.05.2027 -
Jon Garro Real Sociedad Aktiv 91 / 88 40% 3 27.05.2027 -
Christos Mouzakitis Hull City Aktiv 129 / 136 40% 6 26.05.2027 -
Jofre Torrents Ajax Aktiv 120 / 128 40% 6 26.05.2027 -
Yusi Alavés Aktiv 133 / 136 40% 2 21.05.2027 -
Dylan Lawlor Cardiff City Aktiv 112 / 125 40% 1 21.05.2027 -
Ernie Weaver AFC Wimbledon Aktiv 113 / 118 40% 7 20.05.2027 -
Joel McGregor Swindon Town Aktiv 89 / 98 40% 2 20.05.2027 -
Riley Owen Trento Aktiv 100 / 104 40% 5 18.05.2027 -
Sascha Britschgi Padova Verhandlung 124 / 125 40% 2 16.05.2027 -
João Teixeira Porto Aktiv 109 / 119 40% 4 16.05.2027 -
Lucas Høgsberg RC Strasbourg Aktiv 142 / 139 40% 2 16.05.2027 -
Kevin Vazquez Cruz Azul Aktiv 132 / 149 40% 9 15.05.2027 -
Christ Inao Oulaï Fiorentina Aktiv 131 / 143 40% 2 14.05.2027 -
Louis Leroux FC Nantes Aktiv 127 / 124 40% 1 12.05.2027 -
Johan Manzambi Newcastle United Aktiv 135 / 142 40% 1 12.05.2027 -
Pietro Reggiori Pro Patria Aktiv 93 / 102 40% 3 10.05.2027 -
Darryl Bakola Padova Aktiv 102 / 113 40% 1 05.05.2027 -
Matías Gómez Granada Aktiv 118 / 115 40% 2 02.05.2027 -
Tiago Freitas Benfica Aktiv 105 / 113 40% 2 29.04.2027 -
Toni Tamarit Alverca Aktiv 115 / 122 40% 2 28.04.2027 -
Daniel Costa Sporting CP Aktiv 94 / 104 40% 2 27.04.2027 -
Finn Jeltsch VfB Stuttgart Aktiv 130 / 145 40% 2 27.04.2027 -
Cheveyo Tsawa Club Brugge Aktiv 116 / 121 40% 3 22.04.2027 -
Noah Nartey Olympique Lyonnais Aktiv 134 / 131 40% 1 21.04.2027 -
Juan Giménez Celta Aktiv 114 / 124 40% 1 16.04.2027 -
Martim Cunha Porto Aktiv 106 / 111 40% 2 15.04.2027 -
Caleb Yirenkyi Coventry City Aktiv 141 / 140 40% 3 12.04.2027 -
Lucas Agazzi Defensor Sporting Aktiv 114 / 137 40% 1 12.04.2027 -
Matvey Kislyak CSKA Moscow Aktiv 139 / 133 40% 1 08.04.2027 -
James Dornelly Peterborough United Aktiv 106 / 110 40% 3 05.04.2027 -
Bernardo Lima Porto Aktiv 91 / 104 40% 1 02.04.2027 -
David Ozoh Derby County Aktiv 118 / 128 40% 1 01.04.2027 -
Percy Jali Free State Stars Aktiv 94 / 98 40% 2 28.03.2027 -
Ibrahim Maza Bayer Leverkusen Aktiv 149 / 146 40% 1 27.03.2027 -
Gonçalo Oliveira Benfica Aktiv 111 / 120 40% 1 18.03.2027 -
Guillaume Restes Toulouse FC Aktiv 135 / 145 40% 1 12.01.2027 -
Agustín Albrini Independiente Rivadavia Aktiv 91 / 101 40% 1 12.01.2027 -
Francisco Álvarez Argentinos Juniors Aktiv 133 / 131 40% 2 09.12.2026 -
José Hurtado Bragantino Aktiv 118 / 115 40% 1 09.12.2026 -
Aidan Morris Middlesbrough Aktiv 128 / 129 40% 1 09.12.2026 -
Dara O'Shea Ipswich Town Aktiv 133 / 137 40% 2 21.11.2026 -
Felipe Peña Biafore Lanús Aktiv 126 / 135 40% 2 21.11.2026 -
Jesús Orozco Chiquete Cruz Azul Aktiv 131 / 136 40% 2 21.11.2026 -
Santiago González Tigre Aktiv 126 / 120 40% 2 18.11.2026 -
Welington Southampton Aktiv 123 / 125 40% 1 18.11.2026 -
Joaquim Tigres Aktiv 131 / 135 40% 3 10.11.2026 -
Alexis Gutiérrez Club America Aktiv 133 / 125 40% 1 10.11.2026 -
Alejandro Francés Girona Aktiv 125 / 136 40% 1 10.11.2026 -
Leandro Lozano Boca Juniors Aktiv 124 / 119 40% 2 06.11.2026 -
Israel Reyes CSKA Moscow Aktiv 146 / 128 40% 1 06.11.2026 -
Milan van Ewijk Mansfield Town Aktiv 134 / 128 40% 1 05.11.2026 -
Víctor Chust Elche Aktiv 137 / 127 40% 1 05.11.2026 -
Adalberto Carrasquilla Pumas UNAM Aktiv 121 / 136 40% 3 03.11.2026 -
Matías Pérez Racing Club Aktiv 131 / 115 40% 1 03.11.2026 -
Florentino Luís Ipswich Town Aktiv 140 / 141 40% 1 12.10.2026 -
Ramón Juárez Club America Aktiv 133 / 142 40% 1 12.10.2026 -
Federico Navarro Rosario Central Aktiv 116 / 134 40% 1 10.10.2026 -
Ryan Sessegnon Fulham Aktiv 151 / 144 40% 1 10.10.2026 -
Marco Pellegrino Boca Juniors Aktiv 127 / 133 40% 1 09.10.2026 -
Fran Beltrán Girona Aktiv 146 / 138 40% 1 07.10.2026 -
Lautaro Blanco Boca Juniors Aktiv 131 / 124 40% 1 06.10.2026 -
Nazareno Colombo Racing Club Aktiv 123 / 128 40% 1 06.10.2026 -
Flavien-Enzo Boyomo Osasuna Aktiv 153 / 151 40% 1 05.10.2026 -
Andrés Gómez Vasco da Gama Aktiv 138 / 142 40% 1 15.09.2026 -
Noah Sadiki Sunderland Aktiv 134 / 146 40% 1 15.09.2026 -
Alan Lescano Argentinos Juniors Aktiv 129 / 138 40% 1 14.09.2026 -
Rémi Lemoine Chamois Niortais Aktiv 154 / 151 40% 1 14.09.2026 -
Marcel Ruiz RC Lens Aktiv 145 / 135 40% 1 11.09.2026 -
Rico Lewis Manchester City Aktiv 151 / 150 40% 1 07.09.2026 -
Christantus Uche Getafe Aktiv 136 / 144 40% 1 07.09.2026 -
Jadon Sancho Manchester United Aktiv 149 / 152 40% 1 07.09.2026 -